Sea-land Lightning — WDB9986 — position and weather

sailwx.info

Track history (hours):
 
Tides and Currents Weather Stations Pressure Air Temp Water Temp Dewpoint Dewpoint Depression Visibility Wind Speed Wind Dir Waves Ship Positions

Sea-land Lightning

More information available from US FCC via Universal Licensing System.

Last reported at 2014-Aug-15 17:32 UTC. Time now 2014-Aug-21 06:20 UTC.
Position N 34°58' E 140°18'.

Type: Ship (hazmat cat A). MMSI: 303316000.

Date/timePositionNaut miles runAvg speedWind from/ knotsBaromVisibWave heightAir tempDewpointWater temp
2014-Aug-15 17:32N 34°58' E 140°18'2521.2
2014-Aug-15 16:20N 34°50' E 139°48'1417.9
2014-Aug-15 15:33N 35°04' E 139°43'1313.0
2014-Aug-15 14:33N 35°16' E 139°46'9 8.8
2014-Aug-15 13:34N 35°24' E 139°41'0 0.1
2014-Aug-15 12:32N 35°24' E 139°41'0 0.0
2014-Aug-15 11:32N 35°24' E 139°41'0 0.0
2014-Aug-15 10:32N 35°24' E 139°41'0 0.0
2014-Aug-15 09:32N 35°24' E 139°41'0 0.0
2014-Aug-15 08:32N 35°24' E 139°41'0 0.0
2014-Aug-15 07:29N 35°24' E 139°41'0 0.0
2014-Aug-15 06:32N 35°24' E 139°41'2 2.0
2014-Aug-15 05:34N 35°22' E 139°42'1211.8
2014-Aug-15 04:33N 35°11' E 139°47'1111.3
2014-Aug-15 03:33N 35°01' E 139°43'1918.4
2014-Aug-15 02:32N 34°44' E 139°32'  
2014-Aug-08 13:25N 35°57' E 120°42'910.0
2014-Aug-08 12:32N 35°59' E 120°31'1010.7
2014-Aug-08 11:33N 36°01' E 120°19'1 0.1
2014-Aug-07 22:32N 36°02' E 120°19'1212.3
2014-Aug-07 21:33N 35°59' E 120°34'  
Track history (hours):
 
Tides and Currents Weather Stations Pressure Air Temp Water Temp Dewpoint Dewpoint Depression Visibility Wind Speed Wind Dir Waves Ship Positions

Sea-land Lightning

More information available from US FCC via Universal Licensing System.

Last reported at 2014-Aug-15 17:32 UTC. Time now 2014-Aug-21 06:20 UTC.
Position N 34°58' E 140°18'.

Type: Ship (hazmat cat A). MMSI: 303316000.

Date/timePositionNaut miles runAvg speedWind from/ knotsBaromVisibWave heightAir tempDewpointWater temp
2014-Aug-15 17:32N 34°58' E 140°18'2521.2
2014-Aug-15 16:20N 34°50' E 139°48'1417.9
2014-Aug-15 15:33N 35°04' E 139°43'1313.0
2014-Aug-15 14:33N 35°16' E 139°46'9 8.8
2014-Aug-15 13:34N 35°24' E 139°41'0 0.1
2014-Aug-15 12:32N 35°24' E 139°41'0 0.0
2014-Aug-15 11:32N 35°24' E 139°41'0 0.0
2014-Aug-15 10:32N 35°24' E 139°41'0 0.0
2014-Aug-15 09:32N 35°24' E 139°41'0 0.0
2014-Aug-15 08:32N 35°24' E 139°41'0 0.0
2014-Aug-15 07:29N 35°24' E 139°41'0 0.0
2014-Aug-15 06:32N 35°24' E 139°41'2 2.0
2014-Aug-15 05:34N 35°22' E 139°42'1211.8
2014-Aug-15 04:33N 35°11' E 139°47'1111.3
2014-Aug-15 03:33N 35°01' E 139°43'1918.4
2014-Aug-15 02:32N 34°44' E 139°32'  
2014-Aug-08 13:25N 35°57' E 120°42'910.0
2014-Aug-08 12:32N 35°59' E 120°31'1010.7
2014-Aug-08 11:33N 36°01' E 120°19'1 0.1
2014-Aug-07 22:32N 36°02' E 120°19'1212.3
2014-Aug-07 21:33N 35°59' E 120°34'  

Dump ship's entire track history